sensor_id;sensor_type;location;lat;lon;timestamp;P1;durP1;ratioP1;P2;durP2;ratioP2
22060;SDS011;11194;48.092;-1.382;2023-08-08T00:02:14;5.90;;;4.38;;
22060;SDS011;11194;48.092;-1.382;2023-08-08T00:04:42;5.47;;;4.68;;
22060;SDS011;11194;48.092;-1.382;2023-08-08T00:07:08;6.28;;;4.90;;
22060;SDS011;11194;48.092;-1.382;2023-08-08T00:09:35;9.35;;;4.68;;
22060;SDS011;11194;48.092;-1.382;2023-08-08T00:12:02;6.05;;;4.53;;
22060;SDS011;11194;48.092;-1.382;2023-08-08T00:14:29;4.93;;;4.13;;
22060;SDS011;11194;48.092;-1.382;2023-08-08T00:16:55;8.85;;;4.43;;
22060;SDS011;11194;48.092;-1.382;2023-08-08T00:19:21;7.55;;;4.47;;
22060;SDS011;11194;48.092;-1.382;2023-08-08T00:21:47;7.25;;;4.05;;
22060;SDS011;11194;48.092;-1.382;2023-08-08T00:24:13;8.07;;;4.50;;
22060;SDS011;11194;48.092;-1.382;2023-08-08T00:26:39;5.15;;;4.18;;
22060;SDS011;11194;48.092;-1.382;2023-08-08T00:29:06;6.97;;;3.78;;
22060;SDS011;11194;48.092;-1.382;2023-08-08T00:31:32;7.53;;;3.83;;
22060;SDS011;11194;48.092;-1.382;2023-08-08T00:33:58;8.52;;;3.45;;
22060;SDS011;11194;48.092;-1.382;2023-08-08T00:36:24;10.20;;;4.43;;
22060;SDS011;11194;48.092;-1.382;2023-08-08T00:38:50;6.80;;;3.65;;
22060;SDS011;11194;48.092;-1.382;2023-08-08T00:41:16;6.43;;;3.70;;
22060;SDS011;11194;48.092;-1.382;2023-08-08T00:43:42;9.75;;;3.75;;
22060;SDS011;11194;48.092;-1.382;2023-08-08T00:46:09;6.75;;;3.40;;
22060;SDS011;11194;48.092;-1.382;2023-08-08T00:48:35;5.65;;;3.42;;
22060;SDS011;11194;48.092;-1.382;2023-08-08T00:51:01;8.55;;;3.70;;
22060;SDS011;11194;48.092;-1.382;2023-08-08T00:53:27;5.80;;;3.38;;
22060;SDS011;11194;48.092;-1.382;2023-08-08T00:55:56;8.23;;;3.92;;
22060;SDS011;11194;48.092;-1.382;2023-08-08T00:58:22;6.35;;;3.13;;
22060;SDS011;11194;48.092;-1.382;2023-08-08T01:00:48;5.43;;;3.38;;
22060;SDS011;11194;48.092;-1.382;2023-08-08T01:03:14;5.47;;;3.20;;
22060;SDS011;11194;48.092;-1.382;2023-08-08T01:05:44;5.25;;;3.50;;
22060;SDS011;11194;48.092;-1.382;2023-08-08T01:08:14;4.85;;;2.92;;
22060;SDS011;11194;48.092;-1.382;2023-08-08T01:10:42;5.15;;;2.72;;
22060;SDS011;11194;48.092;-1.382;2023-08-08T01:13:18;4.28;;;2.90;;
22060;SDS011;11194;48.092;-1.382;2023-08-08T01:15:45;3.90;;;2.65;;
22060;SDS011;11194;48.092;-1.382;2023-08-08T01:18:11;7.85;;;2.95;;
22060;SDS011;11194;48.092;-1.382;2023-08-08T01:20:39;3.90;;;2.67;;
22060;SDS011;11194;48.092;-1.382;2023-08-08T01:23:11;6.53;;;3.10;;
22060;SDS011;11194;48.092;-1.382;2023-08-08T01:25:38;6.65;;;2.85;;
22060;SDS011;11194;48.092;-1.382;2023-08-08T01:28:05;9.55;;;2.78;;
22060;SDS011;11194;48.092;-1.382;2023-08-08T01:30:31;6.70;;;2.97;;
22060;SDS011;11194;48.092;-1.382;2023-08-08T01:32:58;4.30;;;2.75;;
22060;SDS011;11194;48.092;-1.382;2023-08-08T01:35:24;6.78;;;2.85;;
22060;SDS011;11194;48.092;-1.382;2023-08-08T01:37:56;4.85;;;2.67;;
22060;SDS011;11194;48.092;-1.382;2023-08-08T01:40:26;4.60;;;2.47;;
22060;SDS011;11194;48.092;-1.382;2023-08-08T01:42:54;5.50;;;3.40;;
22060;SDS011;11194;48.092;-1.382;2023-08-08T01:45:21;6.30;;;2.50;;
22060;SDS011;11194;48.092;-1.382;2023-08-08T01:47:50;3.78;;;2.95;;
22060;SDS011;11194;48.092;-1.382;2023-08-08T01:50:16;5.43;;;3.15;;
22060;SDS011;11194;48.092;-1.382;2023-08-08T01:52:42;6.93;;;3.10;;
22060;SDS011;11194;48.092;-1.382;2023-08-08T01:55:08;4.78;;;2.85;;
22060;SDS011;11194;48.092;-1.382;2023-08-08T01:57:35;8.82;;;3.47;;
22060;SDS011;11194;48.092;-1.382;2023-08-08T02:00:01;6.72;;;3.50;;
22060;SDS011;11194;48.092;-1.382;2023-08-08T02:02:29;5.50;;;2.92;;
22060;SDS011;11194;48.092;-1.382;2023-08-08T02:04:55;4.68;;;3.15;;
22060;SDS011;11194;48.092;-1.382;2023-08-08T02:07:21;6.28;;;3.20;;
22060;SDS011;11194;48.092;-1.382;2023-08-08T02:09:47;10.85;;;3.53;;
22060;SDS011;11194;48.092;-1.382;2023-08-08T02:12:15;6.03;;;4.07;;
22060;SDS011;11194;48.092;-1.382;2023-08-08T02:14:41;6.93;;;3.58;;
22060;SDS011;11194;48.092;-1.382;2023-08-08T02:17:07;7.32;;;3.92;;
22060;SDS011;11194;48.092;-1.382;2023-08-08T02:19:33;5.60;;;3.67;;
22060;SDS011;11194;48.092;-1.382;2023-08-08T02:21:59;8.52;;;4.45;;
22060;SDS011;11194;48.092;-1.382;2023-08-08T02:24:25;4.63;;;4.22;;
22060;SDS011;11194;48.092;-1.382;2023-08-08T02:26:51;6.95;;;4.78;;
22060;SDS011;11194;48.092;-1.382;2023-08-08T02:29:17;6.43;;;5.05;;
22060;SDS011;11194;48.092;-1.382;2023-08-08T02:31:44;6.28;;;5.30;;
22060;SDS011;11194;48.092;-1.382;2023-08-08T02:34:10;4.95;;;4.32;;
22060;SDS011;11194;48.092;-1.382;2023-08-08T02:36:36;6.85;;;5.25;;
22060;SDS011;11194;48.092;-1.382;2023-08-08T02:39:02;9.95;;;6.15;;
22060;SDS011;11194;48.092;-1.382;2023-08-08T02:41:28;7.25;;;6.07;;
22060;SDS011;11194;48.092;-1.382;2023-08-08T02:43:54;7.05;;;6.47;;
22060;SDS011;11194;48.092;-1.382;2023-08-08T02:46:20;6.93;;;6.10;;
22060;SDS011;11194;48.092;-1.382;2023-08-08T02:48:46;9.18;;;6.18;;
22060;SDS011;11194;48.092;-1.382;2023-08-08T02:51:12;9.73;;;5.50;;
22060;SDS011;11194;48.092;-1.382;2023-08-08T02:53:38;6.00;;;5.55;;
22060;SDS011;11194;48.092;-1.382;2023-08-08T02:56:04;6.68;;;6.13;;
22060;SDS011;11194;48.092;-1.382;2023-08-08T02:58:30;7.63;;;6.90;;
22060;SDS011;11194;48.092;-1.382;2023-08-08T03:00:56;7.47;;;6.70;;
22060;SDS011;11194;48.092;-1.382;2023-08-08T03:03:22;8.15;;;7.40;;
22060;SDS011;11194;48.092;-1.382;2023-08-08T03:05:49;9.13;;;6.95;;
22060;SDS011;11194;48.092;-1.382;2023-08-08T03:08:15;7.82;;;6.78;;
22060;SDS011;11194;48.092;-1.382;2023-08-08T03:10:41;7.22;;;6.53;;
22060;SDS011;11194;48.092;-1.382;2023-08-08T03:13:07;7.65;;;7.03;;
22060;SDS011;11194;48.092;-1.382;2023-08-08T03:15:33;8.00;;;6.82;;
22060;SDS011;11194;48.092;-1.382;2023-08-08T03:18:00;8.60;;;6.45;;
22060;SDS011;11194;48.092;-1.382;2023-08-08T03:20:26;8.32;;;7.57;;
22060;SDS011;11194;48.092;-1.382;2023-08-08T03:22:52;8.93;;;7.97;;
22060;SDS011;11194;48.092;-1.382;2023-08-08T03:25:18;10.80;;;7.22;;
22060;SDS011;11194;48.092;-1.382;2023-08-08T03:27:44;9.65;;;6.57;;
22060;SDS011;11194;48.092;-1.382;2023-08-08T03:30:11;8.52;;;6.28;;
22060;SDS011;11194;48.092;-1.382;2023-08-08T03:32:37;8.77;;;6.82;;
22060;SDS011;11194;48.092;-1.382;2023-08-08T03:35:03;7.55;;;6.80;;
22060;SDS011;11194;48.092;-1.382;2023-08-08T03:37:29;7.18;;;6.53;;
22060;SDS011;11194;48.092;-1.382;2023-08-08T03:39:55;6.47;;;5.88;;
22060;SDS011;11194;48.092;-1.382;2023-08-08T03:42:21;7.00;;;5.90;;
22060;SDS011;11194;48.092;-1.382;2023-08-08T03:44:47;8.65;;;5.53;;
22060;SDS011;11194;48.092;-1.382;2023-08-08T03:47:13;5.68;;;5.18;;
22060;SDS011;11194;48.092;-1.382;2023-08-08T03:49:39;6.10;;;5.57;;
22060;SDS011;11194;48.092;-1.382;2023-08-08T03:52:05;5.80;;;5.20;;
22060;SDS011;11194;48.092;-1.382;2023-08-08T03:54:32;6.63;;;5.25;;
22060;SDS011;11194;48.092;-1.382;2023-08-08T03:56:58;6.53;;;4.95;;
22060;SDS011;11194;48.092;-1.382;2023-08-08T03:59:24;5.57;;;5.07;;
22060;SDS011;11194;48.092;-1.382;2023-08-08T04:01:50;4.95;;;4.53;;
22060;SDS011;11194;48.092;-1.382;2023-08-08T04:04:16;6.07;;;4.53;;
22060;SDS011;11194;48.092;-1.382;2023-08-08T04:06:42;10.20;;;5.13;;
22060;SDS011;11194;48.092;-1.382;2023-08-08T04:09:08;7.63;;;5.00;;
22060;SDS011;11194;48.092;-1.382;2023-08-08T04:11:34;6.43;;;4.85;;
22060;SDS011;11194;48.092;-1.382;2023-08-08T04:14:01;6.47;;;5.35;;
22060;SDS011;11194;48.092;-1.382;2023-08-08T04:16:27;5.93;;;5.00;;
22060;SDS011;11194;48.092;-1.382;2023-08-08T04:18:53;6.30;;;5.32;;
22060;SDS011;11194;48.092;-1.382;2023-08-08T04:21:19;6.15;;;4.68;;
22060;SDS011;11194;48.092;-1.382;2023-08-08T04:23:45;6.28;;;5.60;;
22060;SDS011;11194;48.092;-1.382;2023-08-08T04:26:11;7.88;;;6.05;;
22060;SDS011;11194;48.092;-1.382;2023-08-08T04:28:39;7.72;;;6.97;;
22060;SDS011;11194;48.092;-1.382;2023-08-08T04:31:05;8.10;;;7.30;;
22060;SDS011;11194;48.092;-1.382;2023-08-08T04:33:31;9.27;;;8.43;;
22060;SDS011;11194;48.092;-1.382;2023-08-08T04:35:57;9.23;;;8.10;;
22060;SDS011;11194;48.092;-1.382;2023-08-08T04:38:24;9.27;;;8.55;;
22060;SDS011;11194;48.092;-1.382;2023-08-08T04:40:50;9.32;;;8.60;;
22060;SDS011;11194;48.092;-1.382;2023-08-08T04:43:16;10.13;;;9.23;;
22060;SDS011;11194;48.092;-1.382;2023-08-08T04:45:42;8.80;;;8.20;;
22060;SDS011;11194;48.092;-1.382;2023-08-08T04:48:08;10.10;;;9.07;;
22060;SDS011;11194;48.092;-1.382;2023-08-08T04:50:34;9.05;;;8.23;;
22060;SDS011;11194;48.092;-1.382;2023-08-08T04:53:00;9.23;;;8.55;;
22060;SDS011;11194;48.092;-1.382;2023-08-08T04:55:26;9.20;;;8.48;;
22060;SDS011;11194;48.092;-1.382;2023-08-08T04:57:52;9.68;;;8.98;;
22060;SDS011;11194;48.092;-1.382;2023-08-08T05:00:18;11.65;;;10.73;;
22060;SDS011;11194;48.092;-1.382;2023-08-08T05:02:44;11.27;;;10.55;;
22060;SDS011;11194;48.092;-1.382;2023-08-08T05:05:10;12.43;;;11.38;;
22060;SDS011;11194;48.092;-1.382;2023-08-08T05:07:36;13.13;;;12.05;;
22060;SDS011;11194;48.092;-1.382;2023-08-08T05:10:03;12.75;;;11.65;;
22060;SDS011;11194;48.092;-1.382;2023-08-08T05:12:29;12.68;;;11.48;;
22060;SDS011;11194;48.092;-1.382;2023-08-08T05:14:55;12.90;;;11.82;;
22060;SDS011;11194;48.092;-1.382;2023-08-08T05:17:21;13.55;;;12.65;;
22060;SDS011;11194;48.092;-1.382;2023-08-08T05:19:47;11.63;;;10.80;;
22060;SDS011;11194;48.092;-1.382;2023-08-08T05:22:13;12.95;;;11.88;;
22060;SDS011;11194;48.092;-1.382;2023-08-08T05:24:39;11.30;;;10.40;;
22060;SDS011;11194;48.092;-1.382;2023-08-08T05:27:05;12.25;;;11.35;;
22060;SDS011;11194;48.092;-1.382;2023-08-08T05:29:31;13.30;;;11.98;;
22060;SDS011;11194;48.092;-1.382;2023-08-08T05:31:57;13.38;;;12.38;;
22060;SDS011;11194;48.092;-1.382;2023-08-08T05:34:23;15.65;;;12.50;;
22060;SDS011;11194;48.092;-1.382;2023-08-08T05:36:50;15.27;;;13.88;;
22060;SDS011;11194;48.092;-1.382;2023-08-08T05:39:16;14.30;;;13.00;;
22060;SDS011;11194;48.092;-1.382;2023-08-08T05:41:42;14.90;;;13.38;;
22060;SDS011;11194;48.092;-1.382;2023-08-08T05:44:08;13.32;;;12.45;;
22060;SDS011;11194;48.092;-1.382;2023-08-08T05:46:34;11.75;;;10.77;;
22060;SDS011;11194;48.092;-1.382;2023-08-08T05:49:00;12.02;;;10.98;;
22060;SDS011;11194;48.092;-1.382;2023-08-08T05:51:26;11.13;;;10.13;;
22060;SDS011;11194;48.092;-1.382;2023-08-08T05:53:52;12.18;;;10.98;;
22060;SDS011;11194;48.092;-1.382;2023-08-08T05:56:18;9.82;;;8.85;;
22060;SDS011;11194;48.092;-1.382;2023-08-08T05:58:44;9.45;;;8.45;;
22060;SDS011;11194;48.092;-1.382;2023-08-08T06:01:10;11.32;;;9.05;;
22060;SDS011;11194;48.092;-1.382;2023-08-08T06:03:36;11.05;;;9.95;;
22060;SDS011;11194;48.092;-1.382;2023-08-08T06:06:03;14.02;;;9.07;;
22060;SDS011;11194;48.092;-1.382;2023-08-08T06:08:29;9.65;;;8.73;;
22060;SDS011;11194;48.092;-1.382;2023-08-08T06:10:56;9.98;;;8.73;;
22060;SDS011;11194;48.092;-1.382;2023-08-08T06:13:22;11.00;;;10.10;;
22060;SDS011;11194;48.092;-1.382;2023-08-08T06:15:48;8.93;;;8.02;;
22060;SDS011;11194;48.092;-1.382;2023-08-08T06:18:15;6.43;;;4.63;;
22060;SDS011;11194;48.092;-1.382;2023-08-08T06:20:41;6.82;;;3.90;;
22060;SDS011;11194;48.092;-1.382;2023-08-08T06:23:07;6.82;;;3.97;;
22060;SDS011;11194;48.092;-1.382;2023-08-08T06:25:33;6.68;;;3.80;;
22060;SDS011;11194;48.092;-1.382;2023-08-08T06:27:59;7.70;;;3.85;;
22060;SDS011;11194;48.092;-1.382;2023-08-08T06:30:25;6.75;;;3.90;;
22060;SDS011;11194;48.092;-1.382;2023-08-08T06:32:51;6.13;;;4.15;;
22060;SDS011;11194;48.092;-1.382;2023-08-08T06:35:17;7.93;;;3.40;;
22060;SDS011;11194;48.092;-1.382;2023-08-08T06:37:43;5.72;;;2.65;;
22060;SDS011;11194;48.092;-1.382;2023-08-08T06:40:10;7.75;;;2.97;;
22060;SDS011;11194;48.092;-1.382;2023-08-08T06:42:36;5.72;;;2.97;;
22060;SDS011;11194;48.092;-1.382;2023-08-08T06:45:02;6.43;;;2.83;;
22060;SDS011;11194;48.092;-1.382;2023-08-08T06:47:28;6.13;;;3.20;;
22060;SDS011;11194;48.092;-1.382;2023-08-08T06:49:54;4.47;;;3.08;;
22060;SDS011;11194;48.092;-1.382;2023-08-08T06:52:21;6.78;;;3.05;;
22060;SDS011;11194;48.092;-1.382;2023-08-08T06:54:47;5.43;;;3.47;;
22060;SDS011;11194;48.092;-1.382;2023-08-08T06:57:13;5.13;;;3.35;;
22060;SDS011;11194;48.092;-1.382;2023-08-08T06:59:39;7.18;;;3.25;;
22060;SDS011;11194;48.092;-1.382;2023-08-08T07:02:06;5.90;;;3.40;;
22060;SDS011;11194;48.092;-1.382;2023-08-08T07:04:32;4.72;;;3.17;;
22060;SDS011;11194;48.092;-1.382;2023-08-08T07:06:58;8.00;;;3.38;;
22060;SDS011;11194;48.092;-1.382;2023-08-08T07:09:24;6.50;;;3.47;;
22060;SDS011;11194;48.092;-1.382;2023-08-08T07:11:50;6.75;;;2.95;;
22060;SDS011;11194;48.092;-1.382;2023-08-08T07:14:16;6.75;;;2.70;;
22060;SDS011;11194;48.092;-1.382;2023-08-08T07:16:42;5.22;;;2.38;;
22060;SDS011;11194;48.092;-1.382;2023-08-08T07:19:08;6.75;;;2.45;;
22060;SDS011;11194;48.092;-1.382;2023-08-08T07:21:36;4.05;;;1.85;;
22060;SDS011;11194;48.092;-1.382;2023-08-08T07:24:02;6.25;;;2.25;;
22060;SDS011;11194;48.092;-1.382;2023-08-08T07:26:29;4.63;;;1.90;;
22060;SDS011;11194;48.092;-1.382;2023-08-08T07:28:55;15.70;;;3.60;;
22060;SDS011;11194;48.092;-1.382;2023-08-08T07:31:21;4.57;;;2.30;;
22060;SDS011;11194;48.092;-1.382;2023-08-08T07:33:47;5.03;;;2.22;;
22060;SDS011;11194;48.092;-1.382;2023-08-08T07:36:13;4.95;;;2.05;;
22060;SDS011;11194;48.092;-1.382;2023-08-08T07:38:39;4.57;;;2.08;;
22060;SDS011;11194;48.092;-1.382;2023-08-08T07:41:05;4.97;;;2.67;;
22060;SDS011;11194;48.092;-1.382;2023-08-08T07:43:31;3.83;;;2.03;;
22060;SDS011;11194;48.092;-1.382;2023-08-08T07:45:57;4.05;;;2.30;;
22060;SDS011;11194;48.092;-1.382;2023-08-08T07:48:23;5.35;;;1.90;;
22060;SDS011;11194;48.092;-1.382;2023-08-08T07:50:49;4.63;;;1.80;;
22060;SDS011;11194;48.092;-1.382;2023-08-08T07:53:16;3.50;;;2.03;;
22060;SDS011;11194;48.092;-1.382;2023-08-08T07:55:42;3.45;;;1.70;;
22060;SDS011;11194;48.092;-1.382;2023-08-08T07:58:08;5.75;;;2.30;;
22060;SDS011;11194;48.092;-1.382;2023-08-08T08:00:34;3.85;;;2.00;;
22060;SDS011;11194;48.092;-1.382;2023-08-08T08:03:00;4.70;;;1.90;;
22060;SDS011;11194;48.092;-1.382;2023-08-08T08:05:27;4.97;;;1.90;;
22060;SDS011;11194;48.092;-1.382;2023-08-08T08:07:53;2.80;;;1.80;;
22060;SDS011;11194;48.092;-1.382;2023-08-08T08:10:19;5.05;;;2.58;;
22060;SDS011;11194;48.092;-1.382;2023-08-08T08:12:45;5.30;;;2.05;;
22060;SDS011;11194;48.092;-1.382;2023-08-08T08:15:11;5.40;;;1.90;;
22060;SDS011;11194;48.092;-1.382;2023-08-08T08:17:37;3.20;;;1.65;;
22060;SDS011;11194;48.092;-1.382;2023-08-08T08:20:03;5.57;;;1.90;;
22060;SDS011;11194;48.092;-1.382;2023-08-08T08:22:32;2.78;;;1.67;;
22060;SDS011;11194;48.092;-1.382;2023-08-08T08:24:58;4.95;;;2.00;;
22060;SDS011;11194;48.092;-1.382;2023-08-08T08:27:25;5.57;;;2.50;;
22060;SDS011;11194;48.092;-1.382;2023-08-08T08:29:51;5.00;;;2.20;;
22060;SDS011;11194;48.092;-1.382;2023-08-08T08:32:17;5.90;;;2.30;;
22060;SDS011;11194;48.092;-1.382;2023-08-08T08:34:43;4.38;;;2.00;;
22060;SDS011;11194;48.092;-1.382;2023-08-08T08:37:09;3.75;;;1.73;;
22060;SDS011;11194;48.092;-1.382;2023-08-08T08:39:36;2.50;;;1.70;;
22060;SDS011;11194;48.092;-1.382;2023-08-08T08:42:02;4.55;;;2.00;;
22060;SDS011;11194;48.092;-1.382;2023-08-08T08:44:30;3.85;;;2.10;;
22060;SDS011;11194;48.092;-1.382;2023-08-08T08:47:03;3.75;;;2.20;;
22060;SDS011;11194;48.092;-1.382;2023-08-08T08:49:29;2.80;;;1.60;;
22060;SDS011;11194;48.092;-1.382;2023-08-08T08:51:57;6.15;;;1.65;;
22060;SDS011;11194;48.092;-1.382;2023-08-08T08:54:25;4.22;;;1.88;;
22060;SDS011;11194;48.092;-1.382;2023-08-08T08:56:51;4.88;;;2.00;;
22060;SDS011;11194;48.092;-1.382;2023-08-08T08:59:17;4.90;;;1.80;;
22060;SDS011;11194;48.092;-1.382;2023-08-08T09:01:43;3.38;;;2.25;;
22060;SDS011;11194;48.092;-1.382;2023-08-08T09:04:10;4.70;;;1.75;;
22060;SDS011;11194;48.092;-1.382;2023-08-08T09:06:36;3.85;;;1.80;;
22060;SDS011;11194;48.092;-1.382;2023-08-08T09:09:03;4.47;;;2.10;;
22060;SDS011;11194;48.092;-1.382;2023-08-08T09:11:30;4.68;;;1.85;;
22060;SDS011;11194;48.092;-1.382;2023-08-08T09:13:56;6.38;;;2.17;;
22060;SDS011;11194;48.092;-1.382;2023-08-08T09:16:23;3.58;;;1.83;;
22060;SDS011;11194;48.092;-1.382;2023-08-08T09:18:49;3.20;;;1.80;;
22060;SDS011;11194;48.092;-1.382;2023-08-08T09:21:15;5.38;;;2.20;;
22060;SDS011;11194;48.092;-1.382;2023-08-08T09:23:41;2.90;;;2.28;;
22060;SDS011;11194;48.092;-1.382;2023-08-08T09:26:09;5.28;;;2.30;;
22060;SDS011;11194;48.092;-1.382;2023-08-08T09:28:35;3.83;;;2.22;;
22060;SDS011;11194;48.092;-1.382;2023-08-08T09:31:01;3.55;;;1.80;;
22060;SDS011;11194;48.092;-1.382;2023-08-08T09:33:30;4.85;;;2.22;;
22060;SDS011;11194;48.092;-1.382;2023-08-08T09:35:56;6.00;;;1.95;;
22060;SDS011;11194;48.092;-1.382;2023-08-08T09:38:22;7.22;;;2.70;;
22060;SDS011;11194;48.092;-1.382;2023-08-08T09:40:49;3.15;;;1.95;;
22060;SDS011;11194;48.092;-1.382;2023-08-08T09:43:16;4.80;;;2.33;;
22060;SDS011;11194;48.092;-1.382;2023-08-08T09:45:42;6.40;;;2.30;;
22060;SDS011;11194;48.092;-1.382;2023-08-08T09:48:09;4.00;;;1.98;;
22060;SDS011;11194;48.092;-1.382;2023-08-08T09:50:35;5.10;;;1.90;;
22060;SDS011;11194;48.092;-1.382;2023-08-08T09:53:02;3.17;;;1.90;;
22060;SDS011;11194;48.092;-1.382;2023-08-08T09:55:28;4.60;;;2.20;;
22060;SDS011;11194;48.092;-1.382;2023-08-08T09:57:55;4.45;;;2.20;;
22060;SDS011;11194;48.092;-1.382;2023-08-08T10:00:23;5.70;;;1.85;;
22060;SDS011;11194;48.092;-1.382;2023-08-08T10:02:52;4.80;;;1.70;;
22060;SDS011;11194;48.092;-1.382;2023-08-08T10:05:19;2.50;;;1.55;;
22060;SDS011;11194;48.092;-1.382;2023-08-08T10:07:45;3.47;;;2.08;;
22060;SDS011;11194;48.092;-1.382;2023-08-08T10:10:11;4.68;;;2.40;;
22060;SDS011;11194;48.092;-1.382;2023-08-08T10:12:38;4.75;;;2.15;;
22060;SDS011;11194;48.092;-1.382;2023-08-08T10:15:08;4.40;;;2.00;;
22060;SDS011;11194;48.092;-1.382;2023-08-08T10:17:39;9.27;;;2.70;;
22060;SDS011;11194;48.092;-1.382;2023-08-08T10:20:05;12.93;;;2.58;;
22060;SDS011;11194;48.092;-1.382;2023-08-08T10:22:37;15.88;;;3.28;;
22060;SDS011;11194;48.092;-1.382;2023-08-08T10:25:04;4.65;;;1.92;;
22060;SDS011;11194;48.092;-1.382;2023-08-08T10:27:34;6.80;;;2.38;;
22060;SDS011;11194;48.092;-1.382;2023-08-08T10:30:07;4.22;;;2.28;;
22060;SDS011;11194;48.092;-1.382;2023-08-08T10:32:37;3.80;;;2.03;;
22060;SDS011;11194;48.092;-1.382;2023-08-08T10:35:05;5.05;;;1.92;;
22060;SDS011;11194;48.092;-1.382;2023-08-08T10:37:32;3.80;;;1.90;;
22060;SDS011;11194;48.092;-1.382;2023-08-08T10:39:58;4.25;;;1.80;;
22060;SDS011;11194;48.092;-1.382;2023-08-08T10:42:29;5.20;;;2.00;;
22060;SDS011;11194;48.092;-1.382;2023-08-08T10:44:56;2.40;;;1.80;;
22060;SDS011;11194;48.092;-1.382;2023-08-08T10:47:26;5.03;;;2.38;;
22060;SDS011;11194;48.092;-1.382;2023-08-08T10:49:56;3.42;;;1.60;;
22060;SDS011;11194;48.092;-1.382;2023-08-08T10:52:22;5.68;;;2.08;;
22060;SDS011;11194;48.092;-1.382;2023-08-08T10:54:52;2.75;;;1.70;;
22060;SDS011;11194;48.092;-1.382;2023-08-08T10:57:25;4.38;;;1.90;;
22060;SDS011;11194;48.092;-1.382;2023-08-08T10:59:52;4.80;;;1.88;;
22060;SDS011;11194;48.092;-1.382;2023-08-08T11:02:20;3.97;;;1.67;;
22060;SDS011;11194;48.092;-1.382;2023-08-08T11:04:48;5.75;;;2.30;;
22060;SDS011;11194;48.092;-1.382;2023-08-08T11:07:15;2.92;;;1.70;;
22060;SDS011;11194;48.092;-1.382;2023-08-08T11:09:42;3.65;;;2.00;;
22060;SDS011;11194;48.092;-1.382;2023-08-08T11:12:14;3.70;;;1.88;;
22060;SDS011;11194;48.092;-1.382;2023-08-08T11:14:41;7.75;;;2.88;;
22060;SDS011;11194;48.092;-1.382;2023-08-08T11:17:08;4.10;;;1.85;;
22060;SDS011;11194;48.092;-1.382;2023-08-08T11:19:40;3.58;;;1.85;;
22060;SDS011;11194;48.092;-1.382;2023-08-08T11:22:09;3.60;;;1.90;;
22060;SDS011;11194;48.092;-1.382;2023-08-08T11:24:39;3.28;;;1.83;;
22060;SDS011;11194;48.092;-1.382;2023-08-08T11:27:05;3.88;;;1.80;;
22060;SDS011;11194;48.092;-1.382;2023-08-08T11:29:31;6.82;;;2.13;;
22060;SDS011;11194;48.092;-1.382;2023-08-08T11:32:00;4.22;;;1.92;;
22060;SDS011;11194;48.092;-1.382;2023-08-08T11:34:29;4.55;;;2.10;;
22060;SDS011;11194;48.092;-1.382;2023-08-08T11:36:55;3.95;;;2.17;;
22060;SDS011;11194;48.092;-1.382;2023-08-08T11:39:23;3.55;;;2.20;;
22060;SDS011;11194;48.092;-1.382;2023-08-08T11:41:49;3.13;;;1.83;;
22060;SDS011;11194;48.092;-1.382;2023-08-08T11:44:15;3.40;;;1.70;;
22060;SDS011;11194;48.092;-1.382;2023-08-08T11:46:43;3.53;;;1.58;;
22060;SDS011;11194;48.092;-1.382;2023-08-08T11:49:10;4.13;;;1.63;;
22060;SDS011;11194;48.092;-1.382;2023-08-08T11:51:36;4.90;;;1.95;;
22060;SDS011;11194;48.092;-1.382;2023-08-08T11:54:03;3.65;;;1.70;;
22060;SDS011;11194;48.092;-1.382;2023-08-08T11:56:32;3.72;;;1.88;;
22060;SDS011;11194;48.092;-1.382;2023-08-08T11:58:59;3.42;;;1.73;;
22060;SDS011;11194;48.092;-1.382;2023-08-08T12:01:25;3.13;;;1.80;;
22060;SDS011;11194;48.092;-1.382;2023-08-08T12:03:52;2.38;;;1.80;;
22060;SDS011;11194;48.092;-1.382;2023-08-08T12:06:19;3.60;;;1.92;;
22060;SDS011;11194;48.092;-1.382;2023-08-08T12:08:45;3.65;;;1.80;;
22060;SDS011;11194;48.092;-1.382;2023-08-08T12:11:12;3.58;;;1.70;;
22060;SDS011;11194;48.092;-1.382;2023-08-08T12:13:40;2.75;;;1.63;;
22060;SDS011;11194;48.092;-1.382;2023-08-08T12:16:11;5.00;;;1.83;;
22060;SDS011;11194;48.092;-1.382;2023-08-08T12:18:37;5.20;;;1.65;;
22060;SDS011;11194;48.092;-1.382;2023-08-08T12:21:04;3.75;;;1.80;;
22060;SDS011;11194;48.092;-1.382;2023-08-08T12:23:30;3.30;;;1.77;;
22060;SDS011;11194;48.092;-1.382;2023-08-08T12:25:57;2.72;;;1.73;;
22060;SDS011;11194;48.092;-1.382;2023-08-08T12:28:24;3.42;;;1.60;;
22060;SDS011;11194;48.092;-1.382;2023-08-08T12:30:50;3.03;;;1.70;;
22060;SDS011;11194;48.092;-1.382;2023-08-08T12:33:16;4.68;;;1.70;;
22060;SDS011;11194;48.092;-1.382;2023-08-08T12:35:42;4.40;;;1.85;;
22060;SDS011;11194;48.092;-1.382;2023-08-08T12:38:08;4.60;;;1.80;;
22060;SDS011;11194;48.092;-1.382;2023-08-08T12:40:35;3.80;;;1.60;;
22060;SDS011;11194;48.092;-1.382;2023-08-08T12:43:01;5.70;;;2.00;;
22060;SDS011;11194;48.092;-1.382;2023-08-08T12:45:27;5.00;;;1.60;;
22060;SDS011;11194;48.092;-1.382;2023-08-08T12:47:53;1.85;;;1.30;;
22060;SDS011;11194;48.092;-1.382;2023-08-08T12:50:19;19.73;;;3.40;;
22060;SDS011;11194;48.092;-1.382;2023-08-08T12:52:45;2.05;;;1.45;;
22060;SDS011;11194;48.092;-1.382;2023-08-08T12:55:12;2.78;;;1.73;;
22060;SDS011;11194;48.092;-1.382;2023-08-08T12:57:40;25.48;;;4.05;;
22060;SDS011;11194;48.092;-1.382;2023-08-08T13:00:06;3.65;;;1.80;;
22060;SDS011;11194;48.092;-1.382;2023-08-08T13:02:33;2.85;;;1.90;;
22060;SDS011;11194;48.092;-1.382;2023-08-08T13:04:59;9.50;;;2.20;;
22060;SDS011;11194;48.092;-1.382;2023-08-08T13:07:28;4.85;;;1.95;;
22060;SDS011;11194;48.092;-1.382;2023-08-08T13:09:54;7.60;;;1.88;;
22060;SDS011;11194;48.092;-1.382;2023-08-08T13:12:20;3.95;;;1.90;;
22060;SDS011;11194;48.092;-1.382;2023-08-08T13:14:46;3.05;;;1.90;;
22060;SDS011;11194;48.092;-1.382;2023-08-08T13:17:12;10.80;;;2.15;;
22060;SDS011;11194;48.092;-1.382;2023-08-08T13:19:39;16.73;;;2.10;;
22060;SDS011;11194;48.092;-1.382;2023-08-08T13:22:05;4.47;;;1.70;;
22060;SDS011;11194;48.092;-1.382;2023-08-08T13:24:32;4.10;;;1.85;;
22060;SDS011;11194;48.092;-1.382;2023-08-08T13:26:58;2.97;;;1.65;;
22060;SDS011;11194;48.092;-1.382;2023-08-08T13:29:24;4.25;;;1.70;;
22060;SDS011;11194;48.092;-1.382;2023-08-08T13:31:50;2.67;;;1.60;;
22060;SDS011;11194;48.092;-1.382;2023-08-08T13:34:16;8.40;;;2.35;;
22060;SDS011;11194;48.092;-1.382;2023-08-08T13:36:42;4.13;;;2.03;;
22060;SDS011;11194;48.092;-1.382;2023-08-08T13:39:08;2.65;;;1.88;;
22060;SDS011;11194;48.092;-1.382;2023-08-08T13:41:35;3.58;;;1.80;;
22060;SDS011;11194;48.092;-1.382;2023-08-08T13:44:01;5.88;;;1.90;;
22060;SDS011;11194;48.092;-1.382;2023-08-08T13:46:27;4.43;;;1.75;;
22060;SDS011;11194;48.092;-1.382;2023-08-08T13:48:53;3.85;;;1.98;;
22060;SDS011;11194;48.092;-1.382;2023-08-08T13:51:19;6.00;;;2.28;;
22060;SDS011;11194;48.092;-1.382;2023-08-08T13:53:46;3.08;;;2.00;;
22060;SDS011;11194;48.092;-1.382;2023-08-08T13:56:15;3.42;;;2.10;;
22060;SDS011;11194;48.092;-1.382;2023-08-08T13:58:41;5.05;;;1.95;;
22060;SDS011;11194;48.092;-1.382;2023-08-08T14:01:08;6.25;;;2.20;;
22060;SDS011;11194;48.092;-1.382;2023-08-08T14:03:35;4.45;;;1.80;;
22060;SDS011;11194;48.092;-1.382;2023-08-08T14:06:01;3.72;;;1.98;;
22060;SDS011;11194;48.092;-1.382;2023-08-08T14:08:27;3.25;;;1.80;;
22060;SDS011;11194;48.092;-1.382;2023-08-08T14:10:53;4.13;;;2.00;;
22060;SDS011;11194;48.092;-1.382;2023-08-08T14:13:19;3.60;;;1.67;;
22060;SDS011;11194;48.092;-1.382;2023-08-08T14:15:46;2.83;;;1.80;;
22060;SDS011;11194;48.092;-1.382;2023-08-08T14:18:12;3.90;;;2.10;;
22060;SDS011;11194;48.092;-1.382;2023-08-08T14:20:38;5.38;;;2.13;;
22060;SDS011;11194;48.092;-1.382;2023-08-08T14:23:05;5.47;;;2.35;;
22060;SDS011;11194;48.092;-1.382;2023-08-08T14:25:31;3.78;;;1.58;;
22060;SDS011;11194;48.092;-1.382;2023-08-08T14:27:57;2.75;;;1.75;;
22060;SDS011;11194;48.092;-1.382;2023-08-08T14:30:25;6.90;;;2.03;;